createdAt,value
2022-12-11T00:00:26.946Z,97819.69
2022-12-11T00:01:28.289Z,97832.47
2022-12-11T00:02:29.760Z,97823.88
2022-12-11T00:03:31.210Z,97815.84
2022-12-11T00:04:32.600Z,97821.03
2022-12-11T00:05:34.254Z,97821.03
2022-12-11T00:06:35.782Z,97817.41
2022-12-11T00:07:37.310Z,97814.81
2022-12-11T00:08:39.059Z,97815.59
2022-12-11T00:09:40.408Z,97820.78
2022-12-11T00:10:47.209Z,97815.59
2022-12-11T00:11:49.064Z,97825.19
2022-12-11T00:12:50.426Z,97812.19
2022-12-11T00:13:51.753Z,97816.63
2022-12-11T00:14:53.126Z,97811.41
2022-12-11T00:15:54.451Z,97815.03
2022-12-11T00:16:55.806Z,97815.28
2022-12-11T00:17:57.206Z,97809.28
2022-12-11T00:18:58.588Z,97813.69
2022-12-11T00:20:00.039Z,97811.66
2022-12-11T00:21:05.085Z,97823.38
2022-12-11T00:22:06.466Z,97818.50
2022-12-11T00:23:07.963Z,97813.31
2022-12-11T00:24:09.597Z,97815.66
2022-12-11T00:25:11.267Z,97816.69
2022-12-11T00:26:13.509Z,97821.34
2022-12-11T00:27:14.900Z,97820.00
2022-12-11T00:28:16.899Z,97823.88
2022-12-11T00:29:18.227Z,97818.91
2022-12-11T00:30:19.579Z,97822.78
2022-12-11T00:31:21.779Z,97823.03
2022-12-11T00:32:23.228Z,97816.22
2022-12-11T00:33:26.413Z,97820.63
2022-12-11T00:34:27.739Z,97826.41
2022-12-11T00:35:29.185Z,97822.00
2022-12-11T00:36:30.509Z,97818.59
2022-12-11T00:37:32.033Z,97817.56
2022-12-11T00:38:33.639Z,97821.75
2022-12-11T00:39:35.049Z,97824.09
2022-12-11T00:40:36.632Z,97820.25
2022-12-11T00:41:38.011Z,97813.78
2022-12-11T00:42:39.405Z,97822.13
2022-12-11T00:43:41.214Z,97812.28
2022-12-11T00:44:42.551Z,97809.66
2022-12-11T00:45:45.234Z,97817.00
2022-12-11T00:46:46.620Z,97821.16
2022-12-11T00:47:47.979Z,97811.09
2022-12-11T00:48:49.406Z,97811.63
2022-12-11T00:49:50.700Z,97807.97
2022-12-11T00:50:51.998Z,97811.69
2022-12-11T00:51:53.300Z,97817.31
2022-12-11T00:52:54.655Z,97812.13
2022-12-11T00:53:55.969Z,97815.50
2022-12-11T00:54:57.315Z,97810.31
2022-12-11T00:55:58.655Z,97808.00
2022-12-11T00:57:00.000Z,97810.88
2022-12-11T00:58:01.364Z,97814.25
2022-12-11T00:59:02.674Z,97809.06
2022-12-11T01:00:05.551Z,97815.56
2022-12-11T01:01:08.182Z,97809.34
2022-12-11T01:02:09.607Z,97810.94
2022-12-11T01:03:13.054Z,97815.88
2022-12-11T01:04:14.771Z,97815.63
2022-12-11T01:05:21.639Z,97814.38
2022-12-11T01:06:24.600Z,97816.72
2022-12-11T01:07:26.363Z,97815.94
2022-12-11T01:08:27.826Z,97824.28
2022-12-11T01:09:29.301Z,97821.44
2022-12-11T01:10:31.150Z,97824.84
2022-12-11T01:11:32.668Z,97827.44
2022-12-11T01:12:34.149Z,97826.41
2022-12-11T01:13:35.959Z,97825.16
2022-12-11T01:14:37.569Z,97831.34
2022-12-11T01:15:41.798Z,97827.75
2022-12-11T01:16:46.782Z,97832.16
2022-12-11T01:17:48.866Z,97834.75
2022-12-11T01:18:50.350Z,97831.66
2022-12-11T01:19:53.834Z,97836.34
2022-12-11T01:20:55.287Z,97830.34
2022-12-11T01:21:56.788Z,97841.03
2022-12-11T01:22:59.404Z,97839.22
2022-12-11T01:24:01.052Z,97840.03
2022-12-11T01:25:02.642Z,97840.56
2022-12-11T01:26:05.219Z,97841.09
2022-12-11T01:27:06.902Z,97840.09
2022-12-11T01:28:09.199Z,97839.53
2022-12-11T01:29:10.593Z,97844.72
2022-12-11T01:30:13.240Z,97845.50
2022-12-11T01:31:15.471Z,97839.78
2022-12-11T01:32:17.036Z,97843.41
2022-12-11T01:33:18.320Z,97841.59
2022-12-11T01:34:19.699Z,97842.13
2022-12-11T01:35:21.708Z,97843.16
2022-12-11T01:36:23.536Z,97843.16
2022-12-11T01:37:24.946Z,97843.16
2022-12-11T01:38:26.342Z,97843.16
2022-12-11T01:39:27.819Z,97841.59
2022-12-11T01:40:29.296Z,97837.44
2022-12-11T01:41:30.679Z,97835.84
2022-12-11T01:42:32.048Z,97835.84
2022-12-11T01:43:33.728Z,97830.09
2022-12-11T01:44:35.071Z,97837.44
2022-12-11T01:45:39.595Z,97832.22
2022-12-11T01:46:41.524Z,97839.00
2022-12-11T01:47:43.536Z,97843.63
2022-12-11T01:48:44.853Z,97837.44
2022-12-11T01:49:46.194Z,97843.41
2022-12-11T01:50:50.515Z,97836.13
2022-12-11T01:51:54.895Z,97840.56
2022-12-11T01:52:56.273Z,97840.81
2022-12-11T01:54:00.522Z,97844.19
2022-12-11T01:55:01.988Z,97849.41
2022-12-11T01:56:04.576Z,97853.81
2022-12-11T01:57:06.997Z,97851.75
2022-12-11T01:58:08.643Z,97852.78
2022-12-11T01:59:10.616Z,97855.91
2022-12-11T02:00:12.156Z,97858.50
2022-12-11T02:01:20.576Z,97862.69
2022-12-11T02:02:27.707Z,97855.69
2022-12-11T02:03:29.131Z,97859.88
2022-12-11T02:04:31.739Z,97862.47
2022-12-11T02:05:33.085Z,97856.22
2022-12-11T02:06:36.283Z,97850.78
2022-12-11T02:07:41.150Z,97854.97
2022-12-11T02:08:42.546Z,97849.78
2022-12-11T02:09:45.994Z,97850.56
2022-12-11T02:10:47.304Z,97852.13
2022-12-11T02:12:02.879Z,97850.28
2022-12-11T02:13:07.641Z,97856.28
2022-12-11T02:14:13.315Z,97860.44
2022-12-11T02:15:32.914Z,97861.81
2022-12-11T02:16:40.471Z,97867.00
2022-12-11T02:17:50.926Z,97862.84
2022-12-11T02:18:58.506Z,97864.94
2022-12-11T02:20:04.816Z,97858.69
2022-12-11T02:21:09.110Z,97863.13
2022-12-11T02:22:13.508Z,97868.09
2022-12-11T02:23:17.843Z,97863.13
2022-12-11T02:24:37.996Z,97861.28
2022-12-11T02:25:50.104Z,97852.22
2022-12-11T02:26:54.222Z,97852.75
2022-12-11T02:28:14.291Z,97857.75
2022-12-11T02:29:25.882Z,97855.38
2022-12-11T02:30:27.306Z,97844.94
2022-12-11T02:31:38.562Z,97841.63
2022-12-11T02:32:42.908Z,97842.41
2022-12-11T02:34:03.091Z,97841.41
2022-12-11T02:35:10.937Z,97852.59
2022-12-11T02:36:13.557Z,97846.34
2022-12-11T02:37:22.922Z,97845.31
2022-12-11T02:38:31.093Z,97847.91
2022-12-11T02:39:34.302Z,97847.91
2022-12-11T02:40:38.995Z,97841.44
2022-12-11T02:41:43.131Z,97845.88
2022-12-11T02:42:45.271Z,97849.47
2022-12-11T02:43:47.915Z,97852.34
2022-12-11T02:44:50.626Z,97844.53
2022-12-11T02:45:52.661Z,97858.59
2022-12-11T02:46:54.922Z,97849.69
2022-12-11T02:47:57.658Z,97850.47
2022-12-11T02:48:59.095Z,97855.19
2022-12-11T02:50:01.978Z,97852.03
2022-12-11T02:51:05.494Z,97856.22
2022-12-11T02:52:07.289Z,97855.13
2022-12-11T02:53:10.851Z,97854.34
2022-12-11T02:54:16.477Z,97849.94
2022-12-11T02:55:18.189Z,97850.72
2022-12-11T02:56:22.960Z,97854.34
2022-12-11T02:57:27.959Z,97846.28
2022-12-11T02:58:33.062Z,97854.63
2022-12-11T02:59:39.743Z,97847.59
2022-12-11T03:00:41.086Z,97844.78
2022-12-11T03:01:43.028Z,97849.22
2022-12-11T03:02:45.473Z,97842.41
2022-12-11T03:03:47.155Z,97849.94
2022-12-11T03:04:48.544Z,97848.91
2022-12-11T03:05:49.881Z,97845.50
2022-12-11T03:06:53.242Z,97851.50
2022-12-11T03:07:54.781Z,97846.25
2022-12-11T03:08:56.119Z,97845.47
2022-12-11T03:09:57.504Z,97839.47
2022-12-11T03:10:58.892Z,97848.06
2022-12-11T03:12:00.214Z,97851.44
2022-12-11T03:13:02.348Z,97847.56
2022-12-11T03:14:03.848Z,97849.69
2022-12-11T03:15:07.175Z,97846.28
2022-12-11T03:16:24.069Z,97856.44
2022-12-11T03:17:29.484Z,97851.03
2022-12-11T03:18:47.792Z,97839.81
2022-12-11T03:19:49.074Z,97849.72
2022-12-11T03:20:56.845Z,97847.13
2022-12-11T03:22:07.051Z,97844.78
2022-12-11T03:23:28.593Z,97850.25
2022-12-11T03:24:43.956Z,97851.06
2022-12-11T03:25:56.821Z,97855.00
2022-12-11T03:27:01.416Z,97848.69
2022-12-11T03:28:09.992Z,97853.69
2022-12-11T03:29:16.918Z,97846.66
2022-12-11T03:30:19.328Z,97854.47
2022-12-11T03:31:23.668Z,97846.66
2022-12-11T03:32:27.795Z,97853.97
2022-12-11T03:33:37.530Z,97849.31
2022-12-11T03:34:44.515Z,97847.50
2022-12-11T03:35:49.519Z,97857.66
2022-12-11T03:36:52.044Z,97854.53
2022-12-11T03:37:54.902Z,97848.53
2022-12-11T03:38:58.568Z,97855.53
2022-12-11T03:40:02.460Z,97847.72
2022-12-11T03:41:05.300Z,97850.31
2022-12-11T03:42:08.399Z,97847.19
2022-12-11T03:43:11.109Z,97847.97
2022-12-11T03:44:12.605Z,97840.16
2022-12-11T03:45:15.127Z,97844.59
2022-12-11T03:46:17.232Z,97837.31
2022-12-11T03:47:21.182Z,97839.13
2022-12-11T03:48:24.244Z,97838.91
2022-12-11T03:49:27.808Z,97836.78
2022-12-11T03:50:31.425Z,97846.41
2022-12-11T03:51:34.534Z,97840.16
2022-12-11T03:52:42.381Z,97839.63
2022-12-11T03:53:47.355Z,97842.72
2022-12-11T03:54:49.819Z,97841.94
2022-12-11T03:55:51.477Z,97843.22
2022-12-11T03:56:55.324Z,97842.66
2022-12-11T03:57:56.664Z,97836.91
2022-12-11T03:58:58.046Z,97837.16
2022-12-11T03:59:59.554Z,97834.59
2022-12-11T04:01:00.925Z,97835.63
2022-12-11T04:02:02.263Z,97831.47
2022-12-11T04:03:06.935Z,97838.22
2022-12-11T04:04:12.634Z,97833.03
2022-12-11T04:05:14.238Z,97822.09
2022-12-11T04:06:15.626Z,97825.72
2022-12-11T04:07:16.964Z,97821.31
2022-12-11T04:08:19.036Z,97818.97
2022-12-11T04:09:20.420Z,97823.41
2022-12-11T04:10:21.761Z,97821.31
2022-12-11T04:11:23.103Z,97815.78
2022-12-11T04:12:24.413Z,97818.94
2022-12-11T04:13:25.754Z,97813.97
2022-12-11T04:14:27.139Z,97819.19
2022-12-11T04:15:28.537Z,97813.97
2022-12-11T04:16:29.835Z,97815.53
2022-12-11T04:17:32.375Z,97817.38
2022-12-11T04:18:33.811Z,97810.59
2022-12-11T04:19:35.202Z,97811.13
2022-12-11T04:20:36.553Z,97807.75
2022-12-11T04:21:39.701Z,97808.00
2022-12-11T04:22:41.238Z,97802.00
2022-12-11T04:23:42.609Z,97799.41
2022-12-11T04:24:43.990Z,97797.28
2022-12-11T04:25:45.370Z,97795.97
2022-12-11T04:26:47.009Z,97795.47
2022-12-11T04:27:48.295Z,97795.97
2022-12-11T04:28:49.647Z,97794.94
2022-12-11T04:29:50.970Z,97799.34
2022-12-11T04:30:52.346Z,97799.34
2022-12-11T04:31:53.755Z,97791.53
2022-12-11T04:32:55.425Z,97802.72
2022-12-11T04:33:56.769Z,97814.97
2022-12-11T04:34:58.146Z,97814.91
2022-12-11T04:35:59.662Z,97823.50
2022-12-11T04:37:00.969Z,97825.31
2022-12-11T04:38:02.306Z,97831.06
2022-12-11T04:39:04.708Z,97824.81
2022-12-11T04:40:08.465Z,97826.94
2022-12-11T04:41:11.893Z,97817.78
2022-12-11T04:42:13.225Z,97820.16
2022-12-11T04:43:14.533Z,97824.59
2022-12-11T04:44:15.865Z,97809.19
2022-12-11T04:45:17.815Z,97816.22
2022-12-11T04:46:20.865Z,97817.00
2022-12-11T04:47:22.182Z,97819.59
2022-12-11T04:48:23.546Z,97811.56
2022-12-11T04:49:24.887Z,97819.31
2022-12-11T04:50:26.435Z,97820.13
2022-12-11T04:51:28.460Z,97822.00
2022-12-11T04:52:29.786Z,97820.38
2022-12-11T04:53:31.307Z,97820.13
2022-12-11T04:54:32.746Z,97812.31
2022-12-11T04:55:34.035Z,97812.78
2022-12-11T04:56:35.386Z,97807.56
2022-12-11T04:57:36.762Z,97814.59
2022-12-11T04:58:38.358Z,97819.03
2022-12-11T04:59:39.755Z,97808.06
2022-12-11T05:00:41.650Z,97808.56
2022-12-11T05:01:42.986Z,97807.78
2022-12-11T05:02:44.440Z,97814.78
2022-12-11T05:03:46.209Z,97819.44
2022-12-11T05:04:47.582Z,97821.50
2022-12-11T05:05:49.782Z,97824.69
2022-12-11T05:06:51.089Z,97827.81
2022-12-11T05:07:52.442Z,97825.97
2022-12-11T05:08:53.795Z,97818.97
2022-12-11T05:09:55.128Z,97820.47
2022-12-11T05:11:00.481Z,97819.38
2022-12-11T05:12:02.025Z,97823.75
2022-12-11T05:13:03.443Z,97818.28
2022-12-11T05:14:04.955Z,97826.59
2022-12-11T05:15:06.508Z,97820.53
2022-12-11T05:16:08.815Z,97827.25
2022-12-11T05:17:10.118Z,97827.47
2022-12-11T05:18:11.512Z,97828.19
2022-12-11T05:19:13.139Z,97818.75
2022-12-11T05:20:14.556Z,97828.63
2022-12-11T05:21:16.027Z,97821.28
2022-12-11T05:22:18.294Z,97820.19
2022-12-11T05:23:19.592Z,97829.03
2022-12-11T05:24:20.921Z,97821.47
2022-12-11T05:25:22.307Z,97812.91
2022-12-11T05:26:23.670Z,97812.13
2022-12-11T05:27:25.013Z,97824.63
2022-12-11T05:28:27.502Z,97819.47
2022-12-11T05:29:28.826Z,97827.22
2022-12-11T05:30:30.143Z,97819.13
2022-12-11T05:31:31.541Z,97819.84
2022-12-11T05:32:32.899Z,97817.72
2022-12-11T05:33:34.225Z,97814.25
2022-12-11T05:34:35.575Z,97814.59
2022-12-11T05:35:36.921Z,97819.78
2022-12-11T05:36:38.438Z,97821.81
2022-12-11T05:37:39.888Z,97822.06
2022-12-11T05:38:41.218Z,97818.13
2022-12-11T05:39:42.524Z,97828.22
2022-12-11T05:40:43.979Z,97814.91
2022-12-11T05:41:45.365Z,97818.75
2022-12-11T05:42:46.712Z,97816.66
2022-12-11T05:43:48.185Z,97816.88
2022-12-11T05:44:49.709Z,97817.38
2022-12-11T05:45:51.025Z,97818.41
2022-12-11T05:46:52.445Z,97819.97
2022-12-11T05:47:53.837Z,97812.88
2022-12-11T05:48:56.419Z,97814.69
2022-12-11T05:49:57.764Z,97814.91
2022-12-11T05:50:59.895Z,97819.56
2022-12-11T05:52:01.181Z,97810.75
2022-12-11T05:53:02.510Z,97816.97
2022-12-11T05:54:03.895Z,97810.44
2022-12-11T05:55:05.385Z,97806.50
2022-12-11T05:56:08.200Z,97803.34
2022-12-11T05:57:09.510Z,97803.06
2022-12-11T05:58:10.848Z,97800.44
2022-12-11T05:59:12.155Z,97797.06
2022-12-11T06:00:13.555Z,97794.41
2022-12-11T06:01:19.142Z,97791.47
2022-12-11T06:02:20.565Z,97793.03
2022-12-11T06:03:21.914Z,97796.66
2022-12-11T06:04:23.206Z,97795.09
2022-12-11T06:05:24.586Z,97791.41
2022-12-11T06:06:26.301Z,97786.66
2022-12-11T06:07:27.695Z,97788.47
2022-12-11T06:08:29.363Z,97784.06
2022-12-11T06:09:30.803Z,97787.69
2022-12-11T06:10:32.467Z,97777.56
2022-12-11T06:11:34.119Z,97780.63
2022-12-11T06:12:35.420Z,97781.41
2022-12-11T06:13:36.723Z,97780.88
2022-12-11T06:14:38.197Z,97781.88
2022-12-11T06:15:39.583Z,97780.28
2022-12-11T06:16:40.915Z,97780.28
2022-12-11T06:17:42.275Z,97779.50
2022-12-11T06:18:44.551Z,97782.34
2022-12-11T06:19:45.870Z,97784.16
2022-12-11T06:20:47.167Z,97787.28
2022-12-11T06:21:48.512Z,97780.53
2022-12-11T06:22:49.855Z,97783.13
2022-12-11T06:23:51.958Z,97785.19
2022-12-11T06:24:53.230Z,97779.75
2022-12-11T06:25:54.547Z,97783.91
2022-12-11T06:26:55.865Z,97780.28
2022-12-11T06:27:57.510Z,97786.06
2022-12-11T06:28:59.144Z,97781.88
2022-12-11T06:30:00.560Z,97780.28
2022-12-11T06:31:02.261Z,97779.50
2022-12-11T06:32:03.673Z,97779.28
2022-12-11T06:33:05.310Z,97782.44
2022-12-11T06:34:06.666Z,97778.03
2022-12-11T06:35:08.309Z,97779.84
2022-12-11T06:36:11.634Z,97774.66
2022-12-11T06:37:13.041Z,97770.22
2022-12-11T06:38:14.355Z,97777.78
2022-12-11T06:39:15.671Z,97780.94
2022-12-11T06:40:17.000Z,97778.09
2022-12-11T06:41:18.567Z,97783.84
2022-12-11T06:42:19.924Z,97778.41
2022-12-11T06:43:21.234Z,97779.19
2022-12-11T06:44:22.558Z,97776.38
2022-12-11T06:45:23.907Z,97780.53
2022-12-11T06:46:25.339Z,97781.56
2022-12-11T06:47:27.087Z,97786.53
2022-12-11T06:48:28.477Z,97782.34
2022-12-11T06:49:29.848Z,97784.72
2022-12-11T06:50:31.204Z,97782.91
2022-12-11T06:51:32.553Z,97794.88
2022-12-11T06:52:34.423Z,97795.97
2022-12-11T06:53:36.209Z,97792.88
2022-12-11T06:54:37.560Z,97792.41
2022-12-11T06:55:39.047Z,97795.53
2022-12-11T06:56:40.628Z,97796.13
2022-12-11T06:57:42.000Z,97794.84
2022-12-11T06:58:43.598Z,97794.38
2022-12-11T06:59:45.160Z,97795.72
2022-12-11T07:00:46.577Z,97791.06
2022-12-11T07:01:48.044Z,97792.41
2022-12-11T07:02:50.419Z,97795.56
2022-12-11T07:03:55.605Z,97798.69
2022-12-11T07:04:56.914Z,97798.47
2022-12-11T07:06:01.690Z,97801.59
2022-12-11T07:07:02.998Z,97804.97
2022-12-11T07:08:04.418Z,97802.94
2022-12-11T07:09:06.232Z,97798.53
2022-12-11T07:10:08.718Z,97803.03
2022-12-11T07:11:11.503Z,97807.19
2022-12-11T07:12:12.793Z,97817.34
2022-12-11T07:13:14.137Z,97810.88
2022-12-11T07:14:15.478Z,97807.78
2022-12-11T07:15:16.829Z,97811.97
2022-12-11T07:16:18.936Z,97808.09
2022-12-11T07:17:20.316Z,97802.66
2022-12-11T07:18:21.662Z,97809.66
2022-12-11T07:19:23.412Z,97801.88
2022-12-11T07:20:24.729Z,97806.03
2022-12-11T07:21:26.038Z,97809.97
2022-12-11T07:22:28.436Z,97804.53
2022-12-11T07:23:29.846Z,97805.88
2022-12-11T07:24:31.182Z,97807.69
2022-12-11T07:25:32.503Z,97805.63
2022-12-11T07:26:34.055Z,97807.97
2022-12-11T07:27:35.397Z,97806.19
2022-12-11T07:28:36.740Z,97806.97
2022-12-11T07:29:38.113Z,97805.94
2022-12-11T07:30:39.423Z,97804.13
2022-12-11T07:31:40.850Z,97807.84
2022-12-11T07:32:42.323Z,97806.25
2022-12-11T07:33:43.742Z,97807.25
2022-12-11T07:34:50.089Z,97808.38
2022-12-11T07:35:52.985Z,97809.72
2022-12-11T07:36:54.346Z,97810.25
2022-12-11T07:37:55.701Z,97812.06
2022-12-11T07:38:57.243Z,97808.69
2022-12-11T07:39:58.661Z,97805.81
2022-12-11T07:41:03.842Z,97814.97
2022-12-11T07:42:05.131Z,97811.09
2022-12-11T07:43:06.544Z,97816.53
2022-12-11T07:44:07.984Z,97806.91
2022-12-11T07:45:09.699Z,97819.66
2022-12-11T07:46:16.315Z,97813.22
2022-12-11T07:47:17.687Z,97816.84
2022-12-11T07:48:19.072Z,97812.44
2022-12-11T07:49:20.408Z,97816.84
2022-12-11T07:50:22.264Z,97821.28
2022-12-11T07:51:25.277Z,97819.97
2022-12-11T07:52:26.579Z,97824.72
2022-12-11T07:53:27.924Z,97818.47
2022-12-11T07:54:29.279Z,97816.66
2022-12-11T07:55:31.932Z,97811.00
2022-12-11T07:56:33.824Z,97817.75
2022-12-11T07:57:35.229Z,97819.31
2022-12-11T07:58:36.706Z,97818.00
2022-12-11T07:59:38.062Z,97816.66
2022-12-11T08:00:39.400Z,97821.88
2022-12-11T08:01:41.002Z,97821.63
2022-12-11T08:02:42.378Z,97819.56
2022-12-11T08:03:43.959Z,97817.75
2022-12-11T08:04:45.280Z,97814.13
2022-12-11T08:05:48.467Z,97813.88
2022-12-11T08:06:49.806Z,97814.44
2022-12-11T08:07:51.284Z,97817.28
2022-12-11T08:08:53.546Z,97815.47
2022-12-11T08:09:54.913Z,97817.56
2022-12-11T08:10:56.300Z,97813.97
2022-12-11T08:11:57.703Z,97811.56
2022-12-11T08:12:59.037Z,97818.34
2022-12-11T08:14:00.417Z,97812.13
2022-12-11T08:15:01.807Z,97809.81
2022-12-11T08:16:04.334Z,97814.00
2022-12-11T08:17:05.823Z,97814.00
2022-12-11T08:18:07.203Z,97804.91
2022-12-11T08:19:08.543Z,97801.84
2022-12-11T08:20:10.169Z,97810.19
2022-12-11T08:21:15.864Z,97809.16
2022-12-11T08:22:17.215Z,97808.13
2022-12-11T08:23:18.518Z,97807.88
2022-12-11T08:24:19.832Z,97803.47
2022-12-11T08:25:21.202Z,97813.09
2022-12-11T08:26:24.199Z,97810.22
2022-12-11T08:27:25.474Z,97807.63
2022-12-11T08:28:27.396Z,97804.78
2022-12-11T08:29:28.879Z,97805.34
2022-12-11T08:30:30.318Z,97809.75
2022-12-11T08:31:31.673Z,97803.78
2022-12-11T08:32:34.011Z,97805.09
2022-12-11T08:33:36.189Z,97800.72
2022-12-11T08:34:37.625Z,97810.16
2022-12-11T08:35:39.612Z,97810.22
2022-12-11T08:36:41.451Z,97808.44
2022-12-11T08:37:42.802Z,97812.66
2022-12-11T08:38:44.474Z,97805.69
2022-12-11T08:39:45.859Z,97810.16
2022-12-11T08:40:47.140Z,97802.91
2022-12-11T08:41:48.734Z,97798.75
2022-12-11T08:42:50.147Z,97803.47
2022-12-11T08:43:51.611Z,97801.94
2022-12-11T08:44:52.991Z,97807.44
2022-12-11T08:45:54.735Z,97803.81
2022-12-11T08:46:56.125Z,97799.63
2022-12-11T08:47:58.334Z,97803.75
2022-12-11T08:48:59.695Z,97800.91
2022-12-11T08:50:00.978Z,97805.06
2022-12-11T08:51:03.251Z,97803.50
2022-12-11T08:52:05.022Z,97805.38
2022-12-11T08:53:06.502Z,97805.13
2022-12-11T08:54:09.242Z,97809.31
2022-12-11T08:55:10.784Z,97805.41
2022-12-11T08:56:13.969Z,97807.00
2022-12-11T08:57:15.334Z,97808.59
2022-12-11T08:58:16.681Z,97812.00
2022-12-11T08:59:18.044Z,97807.91
2022-12-11T09:00:19.553Z,97812.81
2022-12-11T09:01:22.287Z,97803.44
2022-12-11T09:02:23.723Z,97810.50
2022-12-11T09:03:25.198Z,97806.13
2022-12-11T09:04:26.638Z,97807.44
2022-12-11T09:05:28.020Z,97808.25
2022-12-11T09:06:30.251Z,97803.03
2022-12-11T09:07:31.677Z,97797.56
2022-12-11T09:08:33.340Z,97802.22
2022-12-11T09:09:34.729Z,97802.50
2022-12-11T09:10:36.045Z,97800.94
2022-12-11T09:11:37.548Z,97803.59
2022-12-11T09:12:39.014Z,97795.75
2022-12-11T09:13:41.327Z,97805.66
2022-12-11T09:14:42.690Z,97797.84
2022-12-11T09:15:44.187Z,97797.66
2022-12-11T09:16:45.607Z,97800.53
2022-12-11T09:17:46.925Z,97801.56
2022-12-11T09:18:48.922Z,97804.69
2022-12-11T09:19:50.288Z,97801.06
2022-12-11T09:20:58.432Z,97806.81
2022-12-11T09:21:59.712Z,97802.94
2022-12-11T09:23:01.233Z,97805.84
2022-12-11T09:24:02.671Z,97803.75
2022-12-11T09:25:04.221Z,97800.09
2022-12-11T09:26:06.384Z,97801.59
2022-12-11T09:27:07.658Z,97806.31
2022-12-11T09:28:08.982Z,97804.78
2022-12-11T09:29:10.564Z,97809.72
2022-12-11T09:30:12.055Z,97803.25
2022-12-11T09:31:15.033Z,97806.63
2022-12-11T09:32:16.459Z,97804.53
2022-12-11T09:33:17.834Z,97803.44
2022-12-11T09:34:23.617Z,97810.72
2022-12-11T09:35:28.855Z,97800.84
2022-12-11T09:36:30.448Z,97801.91
2022-12-11T09:37:33.191Z,97813.13
2022-12-11T09:38:35.079Z,97807.66
2022-12-11T09:39:36.474Z,97807.44
2022-12-11T09:40:42.485Z,97798.84
2022-12-11T09:41:55.738Z,97802.50
2022-12-11T09:42:57.368Z,97803.53
2022-12-11T09:44:11.430Z,97801.22
2022-12-11T09:45:14.968Z,97802.78
2022-12-11T09:46:17.211Z,97796.03
2022-12-11T09:47:20.996Z,97802.31
2022-12-11T09:48:23.941Z,97795.81
2022-12-11T09:49:39.212Z,97796.88
2022-12-11T09:50:40.979Z,97798.19
2022-12-11T09:51:52.822Z,97795.56
2022-12-11T09:53:00.275Z,97786.44
2022-12-11T09:54:02.904Z,97792.72
2022-12-11T09:55:13.220Z,97794.53
2022-12-11T09:56:14.807Z,97786.19
2022-12-11T09:57:37.919Z,97784.09
2022-12-11T09:58:54.232Z,97790.88
2022-12-11T10:00:05.108Z,97786.41
2022-12-11T10:01:17.709Z,97791.41
2022-12-11T10:02:19.077Z,97789.88
2022-12-11T10:03:20.449Z,97787.28
2022-12-11T10:04:36.311Z,97785.22
2022-12-11T10:06:04.479Z,97790.47
2022-12-11T10:07:11.702Z,97792.56
2022-12-11T10:08:35.341Z,97788.63
2022-12-11T10:09:39.610Z,97780.00
2022-12-11T10:10:40.926Z,97784.72
2022-12-11T10:11:57.594Z,97783.13
2022-12-11T10:12:58.860Z,97786.00
2022-12-11T10:14:12.412Z,97781.84
2022-12-11T10:15:30.217Z,97781.56
2022-12-11T10:16:38.319Z,97789.16
2022-12-11T10:17:40.225Z,97786.78
2022-12-11T10:18:41.893Z,97781.31
2022-12-11T10:19:43.368Z,97782.09
2022-12-11T10:20:45.268Z,97785.72
2022-12-11T10:21:47.191Z,97780.25
2022-12-11T10:22:50.074Z,97777.34
2022-12-11T10:23:56.738Z,97774.97
2022-12-11T10:25:15.021Z,97774.41
2022-12-11T10:26:20.953Z,97770.75
2022-12-11T10:27:24.071Z,97771.03
2022-12-11T10:28:27.938Z,97768.44
2022-12-11T10:29:29.356Z,97770.28
2022-12-11T10:30:36.252Z,97765.59
2022-12-11T10:31:50.644Z,97761.69
2022-12-11T10:33:08.695Z,97767.41
2022-12-11T10:34:15.080Z,97762.75
2022-12-11T10:35:25.375Z,97757.50
2022-12-11T10:36:28.595Z,97760.16
2022-12-11T10:37:30.273Z,97758.06
2022-12-11T10:38:33.172Z,97754.69
2022-12-11T10:39:34.538Z,97754.41
2022-12-11T10:40:37.334Z,97751.03
2022-12-11T10:41:40.482Z,97750.22
2022-12-11T10:42:53.948Z,97751.03
2022-12-11T10:43:55.318Z,97755.72
2022-12-11T10:45:01.285Z,97756.78
2022-12-11T10:46:03.631Z,97754.69
2022-12-11T10:47:06.286Z,97750.53
2022-12-11T10:48:11.093Z,97749.25
2022-12-11T10:49:24.577Z,97746.34
2022-12-11T10:50:26.100Z,97752.63
2022-12-11T10:51:30.609Z,97741.63
2022-12-11T10:52:37.219Z,97752.31
2022-12-11T10:53:38.698Z,97749.19
2022-12-11T10:54:43.669Z,97744.25
2022-12-11T10:55:47.012Z,97740.06
2022-12-11T10:56:48.790Z,97737.72
2022-12-11T10:58:19.582Z,97739.28
2022-12-11T10:59:24.165Z,97732.50
2022-12-11T11:00:31.334Z,97735.88
2022-12-11T11:01:32.955Z,97734.28
2022-12-11T11:02:35.893Z,97730.13
2022-12-11T11:03:52.357Z,97728.59
2022-12-11T11:04:54.877Z,97730.97
2022-12-11T11:06:03.630Z,97730.97
2022-12-11T11:07:12.575Z,97733.59
2022-12-11T11:08:15.598Z,97735.44
2022-12-11T11:09:35.688Z,97727.06
2022-12-11T11:10:37.115Z,97735.16
2022-12-11T11:11:38.763Z,97726.78
2022-12-11T11:12:40.072Z,97719.50
2022-12-11T11:13:41.424Z,97729.16
2022-12-11T11:14:42.781Z,97728.38
2022-12-11T11:15:44.991Z,97725.22
2022-12-11T11:16:50.494Z,97727.06
2022-12-11T11:17:55.843Z,97722.59
2022-12-11T11:18:57.965Z,97726.28
2022-12-11T11:20:04.093Z,97724.19
2022-12-11T11:21:05.960Z,97725.00
2022-12-11T11:22:08.688Z,97721.56
2022-12-11T11:23:13.938Z,97720.28
2022-12-11T11:24:24.104Z,97721.31
2022-12-11T11:25:27.041Z,97725.00
2022-12-11T11:27:04.275Z,97717.66
2022-12-11T11:27:54.854Z,97711.91
2022-12-11T11:28:57.000Z,97712.19
2022-12-11T11:30:00.352Z,97708.28
2022-12-11T11:31:06.417Z,97703.84
2022-12-11T11:32:37.054Z,97708.56
2022-12-11T11:33:45.873Z,97706.72
2022-12-11T11:34:47.418Z,97699.13
2022-12-11T11:35:52.665Z,97713.25
2022-12-11T11:36:57.578Z,97709.56
2022-12-11T11:38:13.929Z,97712.47
2022-12-11T11:39:23.135Z,97706.19
2022-12-11T11:40:27.015Z,97714.56
2022-12-11T11:41:40.619Z,97709.84
2022-12-11T11:43:00.587Z,97711.94
2022-12-11T11:44:05.103Z,97703.84
2022-12-11T11:45:12.536Z,97708.78
2022-12-11T11:46:17.633Z,97702.28
2022-12-11T11:47:24.205Z,97708.50
2022-12-11T11:48:46.381Z,97699.66
2022-12-11T11:49:59.942Z,97706.97
2022-12-11T11:51:12.808Z,97705.38
2022-12-11T11:52:24.445Z,97698.59
2022-12-11T11:53:32.535Z,97703.28
2022-12-11T11:54:43.002Z,97701.75
2022-12-11T11:55:58.519Z,97702.28
2022-12-11T11:57:01.870Z,97702.28
2022-12-11T11:58:14.167Z,97706.19
2022-12-11T11:59:22.508Z,97705.38
2022-12-11T12:00:28.814Z,97697.56
2022-12-11T12:01:33.324Z,97710.09
2022-12-11T12:02:34.904Z,97700.16
2022-12-11T12:03:36.331Z,97704.88
2022-12-11T12:04:37.689Z,97702.28
2022-12-11T12:05:50.917Z,97699.41
2022-12-11T12:06:52.287Z,97699.09
2022-12-11T12:07:56.519Z,97702.50
2022-12-11T12:09:16.700Z,97697.28
2022-12-11T12:10:18.027Z,97701.72
2022-12-11T12:11:37.924Z,97700.66
2022-12-11T12:12:39.241Z,97700.91
2022-12-11T12:13:50.824Z,97702.97
2022-12-11T12:15:10.675Z,97704.31
2022-12-11T12:16:50.978Z,97707.16
2022-12-11T12:17:55.741Z,97700.91
2022-12-11T12:19:13.652Z,97699.09
2022-12-11T12:20:23.761Z,97693.59
2022-12-11T12:21:31.554Z,97701.19
2022-12-11T12:22:53.571Z,97703.81
2022-12-11T12:24:03.994Z,97701.19
2022-12-11T12:25:15.063Z,97705.13
2022-12-11T12:26:21.214Z,97714.50
2022-12-11T12:27:58.228Z,97699.38